Time;durP1;ratioP1;P1;durP2;ratioP2;P2;SDS_P1;SDS_P2;PMS_P1;PMS_P2;Temp;Humidity;BMP_temperature;BMP_pressure;BME280_temperature;BME280_humidity;BME280_pressure;Samples;Min_cycle;Max_cycle;Signal;HPM_P1;HPM_P2
2021/12/24 00:00:07;;;;;;;9.82;6.97;;;17.00;42.80;;;;;;5012834;28;20533;-70
2021/12/24 00:02:32;;;;;;;9.45;7.07;;;17.10;42.90;;;;;;5012628;28;20430;-70
2021/12/24 00:04:58;;;;;;;11.77;7.50;;;17.10;42.90;;;;;;5011343;28;20099;-70
2021/12/24 00:07:23;;;;;;;11.25;7.30;;;17.10;43.00;;;;;;5012700;28;20096;-70
2021/12/24 00:09:49;;;;;;;12.00;7.43;;;17.10;43.00;;;;;;5012817;28;20034;-70
2021/12/24 00:12:18;;;;;;;10.85;7.35;;;17.10;43.00;;;;;;5012723;28;20034;-70
2021/12/24 00:14:50;;;;;;;11.40;7.65;;;17.10;43.10;;;;;;5012661;28;20026;-70
2021/12/24 00:17:20;;;;;;;10.38;7.38;;;17.10;43.20;;;;;;5011345;28;20026;-70
2021/12/24 00:20:02;;;;;;;10.45;7.07;;;17.10;43.20;;;;;;4993125;28;20030;-70
2021/12/24 00:23:16;;;;;;;10.02;7.00;;;17.10;43.20;;;;;;4995819;28;20018;-70
2021/12/24 00:36:12;;;;;;;10.80;7.20;;;17.10;43.50;;;;;;4997060;28;20037;-70
2021/12/24 00:38:38;;;;;;;11.13;7.07;;;17.10;43.60;;;;;;5000718;28;20018;-70
2021/12/24 00:41:03;;;;;;;10.27;7.22;;;17.10;43.60;;;;;;5016113;28;20033;-70
2021/12/24 00:43:28;;;;;;;10.27;6.70;;;17.10;43.60;;;;;;5016213;28;20022;-70
2021/12/24 00:45:54;;;;;;;10.18;7.18;;;17.10;43.60;;;;;;5014850;28;20022;-71
2021/12/24 00:48:20;;;;;;;10.85;7.07;;;17.10;43.60;;;;;;5015943;28;20022;-70
2021/12/24 00:55:59;;;;;;;;;;;17.10;43.80;;;;;;5016398;28;20486;-70
2021/12/24 00:58:24;;;;;;;8.85;6.82;;;17.10;44.00;;;;;;5015843;28;20269;-70
2021/12/24 01:00:50;;;;;;;11.52;7.10;;;17.10;44.00;;;;;;5014490;28;20026;-70
2021/12/24 01:03:15;;;;;;;10.70;7.10;;;17.10;44.20;;;;;;5015626;28;20548;-70
2021/12/24 01:05:42;;;;;;;9.88;6.72;;;17.10;44.10;;;;;;5015603;28;20045;-70
2021/12/24 01:08:10;;;;;;;10.25;6.25;;;17.10;44.20;;;;;;5015696;28;20018;-70
2021/12/24 01:10:41;;;;;;;9.30;6.43;;;17.10;44.10;;;;;;5015877;28;20050;-70
2021/12/24 01:13:07;;;;;;;10.23;6.88;;;17.10;44.20;;;;;;5014459;28;20041;-70
2021/12/24 01:15:34;;;;;;;10.38;6.28;;;17.10;44.20;;;;;;5015548;28;20470;-70
2021/12/24 01:18:09;;;;;;;9.43;6.88;;;17.10;44.20;;;;;;5008193;28;20057;-70
2021/12/24 01:20:46;;;;;;;8.60;6.43;;;17.10;44.20;;;;;;4995865;28;20033;-70
2021/12/24 01:23:32;;;;;;;8.30;6.18;;;17.20;45.30;;;;;;4995849;28;20073;-70
2021/12/24 01:26:08;;;;;;;7.93;6.10;;;17.20;44.30;;;;;;4995707;28;20026;-70
2021/12/24 01:29:05;;;;;;;8.75;6.00;;;17.20;44.40;;;;;;4995048;28;20037;-71
2021/12/24 01:45:16;;;;;;;6.65;5.47;;;17.20;44.70;;;;;;5015364;28;20061;-70
2021/12/24 01:47:42;;;;;;;7.38;5.55;;;17.20;44.80;;;;;;5014887;28;20100;-71
2021/12/24 01:50:08;;;;;;;7.68;5.65;;;17.20;44.70;;;;;;5014814;28;20121;-71
2021/12/24 01:52:33;;;;;;;7.97;5.85;;;17.20;44.70;;;;;;5014700;28;20030;-70
2021/12/24 01:54:59;;;;;;;7.57;6.00;;;17.20;44.70;;;;;;5014917;28;20393;-70
2021/12/24 01:57:25;;;;;;;7.32;5.43;;;17.20;44.80;;;;;;5014737;28;20463;-70
2021/12/24 01:59:51;;;;;;;7.53;5.60;;;17.20;44.90;;;;;;5014533;28;20030;-70
2021/12/24 02:02:16;;;;;;;7.45;5.70;;;17.20;44.90;;;;;;5014550;28;20428;-70
2021/12/24 02:04:42;;;;;;;6.97;5.47;;;17.20;44.90;;;;;;5014429;28;20055;-70
2021/12/24 02:07:08;;;;;;;6.88;5.72;;;17.20;44.90;;;;;;5014527;28;20030;-70
2021/12/24 02:09:34;;;;;;;7.35;5.95;;;17.20;45.00;;;;;;5013276;28;20026;-70
2021/12/24 02:12:00;;;;;;;8.65;5.78;;;17.20;45.00;;;;;;5013116;28;20548;-70
2021/12/24 02:14:33;;;;;;;6.95;5.88;;;17.20;45.00;;;;;;5012957;28;20105;-70
2021/12/24 02:30:38;;;;;;;8.63;6.50;;;17.20;45.20;;;;;;4994608;28;20044;-70
2021/12/24 02:33:05;;;;;;;7.97;7.07;;;17.20;45.30;;;;;;4994522;28;20030;-70
2021/12/24 02:35:31;;;;;;;8.45;6.78;;;17.20;45.30;;;;;;4994360;28;20022;-70
2021/12/24 02:37:58;;;;;;;8.70;6.88;;;17.20;45.40;;;;;;4993205;28;20030;-71
2021/12/24 02:40:24;;;;;;;7.43;6.40;;;17.20;45.40;;;;;;5013769;28;20025;-71
2021/12/24 02:42:54;;;;;;;9.10;7.03;;;17.30;45.50;;;;;;5013878;28;20022;-71
2021/12/24 02:45:21;;;;;;;10.18;7.47;;;17.30;45.50;;;;;;5013726;28;20067;-71
2021/12/24 02:48:13;;;;;;;9.25;7.45;;;17.30;45.50;;;;;;5013808;28;20371;-71
2021/12/24 02:56:11;;;;;;;9.45;7.13;;;17.20;45.60;;;;;;5013717;28;20041;-70
2021/12/24 02:58:47;;;;;;;8.85;7.10;;;17.20;45.70;;;;;;5013627;28;20037;-71
2021/12/24 03:01:16;;;;;;;9.52;7.40;;;17.30;45.90;;;;;;5013608;28;20556;-71
2021/12/24 03:03:47;;;;;;;9.18;7.22;;;17.20;45.90;;;;;;5013286;28;20025;-70
2021/12/24 03:06:21;;;;;;;8.52;7.25;;;17.30;45.90;;;;;;5013945;28;20390;-69
2021/12/24 03:08:47;;;;;;;8.95;6.95;;;17.30;45.90;;;;;;5013977;28;20053;-68
2021/12/24 03:11:13;;;;;;;9.07;7.28;;;17.30;45.90;;;;;;5013407;28;20026;-68
2021/12/24 03:13:40;;;;;;;10.35;7.90;;;17.30;45.90;;;;;;5013341;28;20076;-68
2021/12/24 03:16:06;;;;;;;11.32;7.95;;;17.30;46.00;;;;;;5013335;28;20033;-68
2021/12/24 03:18:34;;;;;;;8.43;6.90;;;17.30;46.00;;;;;;5001780;28;20383;-70
2021/12/24 03:21:06;;;;;;;9.50;7.18;;;17.30;46.10;;;;;;4993405;28;20100;-71
2021/12/24 03:23:36;;;;;;;10.27;7.15;;;17.30;46.10;;;;;;4993685;28;20026;-70
2021/12/24 03:26:04;;;;;;;8.77;6.68;;;17.30;46.20;;;;;;4993521;28;20019;-70
2021/12/24 03:28:29;;;;;;;9.38;7.07;;;17.30;46.30;;;;;;4993593;28;20393;-69
2021/12/24 03:30:55;;;;;;;9.20;6.82;;;17.30;46.30;;;;;;4993378;28;20026;-68
2021/12/24 03:33:20;;;;;;;10.93;6.95;;;17.30;46.30;;;;;;4992166;28;20035;-69
2021/12/24 03:35:46;;;;;;;7.95;6.47;;;17.30;46.30;;;;;;4993417;28;20501;-69
2021/12/24 03:38:11;;;;;;;7.57;6.40;;;17.30;46.40;;;;;;4995282;28;20026;-71
2021/12/24 03:40:37;;;;;;;7.95;6.32;;;17.30;46.40;;;;;;5012760;28;20083;-69
2021/12/24 03:43:02;;;;;;;9.88;6.65;;;17.30;46.40;;;;;;5012979;28;20018;-71
2021/12/24 03:45:37;;;;;;;8.25;6.28;;;17.30;46.40;;;;;;5012958;28;20026;-71
2021/12/24 03:48:14;;;;;;;9.90;6.40;;;17.30;46.50;;;;;;5012768;28;20018;-70
2021/12/24 03:50:58;;;;;;;8.25;5.93;;;17.30;46.60;;;;;;5012823;28;20532;-69
2021/12/24 03:56:08;;;;;;;7.78;5.88;;;17.30;46.60;;;;;;5012435;28;20091;-70
2021/12/24 03:58:33;;;;;;;10.93;6.00;;;17.30;46.70;;;;;;5012887;28;20449;-70
2021/12/24 04:00:59;;;;;;;7.88;6.05;;;17.30;46.70;;;;;;5012485;28;20030;-71
2021/12/24 04:03:24;;;;;;;8.30;5.85;;;17.30;46.80;;;;;;5012468;28;20136;-71
2021/12/24 04:05:50;;;;;;;10.32;6.00;;;17.40;46.90;;;;;;5012670;28;20038;-69
2021/12/24 04:08:16;;;;;;;7.72;5.85;;;17.40;46.90;;;;;;5012654;28;20030;-71
2021/12/24 04:10:42;;;;;;;8.23;5.32;;;17.30;46.90;;;;;;5012559;28;20022;-71
2021/12/24 04:13:08;;;;;;;7.47;5.68;;;17.40;48.00;;;;;;5012507;28;20029;-69
2021/12/24 04:15:35;;;;;;;7.80;5.82;;;17.40;47.10;;;;;;5012650;28;20030;-71
2021/12/24 04:18:01;;;;;;;6.80;4.90;;;17.40;47.10;;;;;;5005228;28;20710;-71
2021/12/24 04:25:54;;;;;;;8.75;5.40;;;17.40;47.20;;;;;;4993117;28;20056;-71
2021/12/24 04:28:20;;;;;;;8.43;5.22;;;17.40;47.20;;;;;;4992919;28;20101;-68
2021/12/24 04:30:50;;;;;;;5.45;4.55;;;17.40;47.20;;;;;;4992814;28;20042;-70
2021/12/24 04:33:29;;;;;;;7.15;4.80;;;17.40;47.30;;;;;;4992898;28;20023;-70
2021/12/24 04:52:27;;;;;;;7.47;3.88;;;17.40;47.60;;;;;;5012445;28;20041;-70
2021/12/24 05:03:12;;;;;;;8.40;3.88;;;17.40;47.70;;;;;;5012300;28;20041;-71
2021/12/24 05:05:45;;;;;;;6.43;3.65;;;17.40;48.70;;;;;;5011950;28;20525;-71
2021/12/24 05:08:26;;;;;;;6.32;3.80;;;17.40;47.80;;;;;;5012838;28;20014;-71
2021/12/24 05:10:52;;;;;;;5.82;3.70;;;17.40;47.80;;;;;;5015483;28;20022;-71
2021/12/24 05:13:21;;;;;;;5.10;3.50;;;17.40;47.90;;;;;;5014181;28;20046;-71
2021/12/24 05:15:50;;;;;;;5.75;3.60;;;17.40;47.90;;;;;;5014237;28;20037;-71
2021/12/24 05:23:38;;;;;;;6.53;3.10;;;17.40;48.00;;;;;;4995946;28;20106;-70
2021/12/24 05:26:04;;;;;;;5.95;3.28;;;17.40;48.00;;;;;;4995615;28;20027;-70
2021/12/24 05:28:29;;;;;;;4.80;2.80;;;17.40;48.10;;;;;;4995747;28;20030;-70
2021/12/24 05:30:55;;;;;;;5.72;3.28;;;17.40;48.00;;;;;;4994331;28;20030;-70
2021/12/24 05:33:20;;;;;;;5.13;2.95;;;17.40;48.00;;;;;;4995584;28;20033;-70
2021/12/24 05:35:47;;;;;;;5.45;2.72;;;17.40;48.10;;;;;;4995616;28;20054;-70
2021/12/24 05:38:14;;;;;;;6.20;3.22;;;17.50;48.20;;;;;;4996155;28;20426;-69
2021/12/24 05:40:40;;;;;;;4.68;2.88;;;17.50;48.20;;;;;;5014919;28;20033;-69
2021/12/24 05:43:06;;;;;;;6.15;2.88;;;17.50;48.30;;;;;;5014962;28;20474;-69
2021/12/24 05:45:32;;;;;;;6.80;3.00;;;17.50;48.30;;;;;;5015053;28;20018;-69
2021/12/24 05:47:57;;;;;;;7.25;3.25;;;17.50;48.40;;;;;;5014577;28;20076;-69
2021/12/24 05:50:23;;;;;;;5.32;3.00;;;17.60;48.50;;;;;;5013769;28;20025;-70
2021/12/24 05:52:48;;;;;;;6.55;3.10;;;17.60;48.60;;;;;;5013495;28;20053;-70
2021/12/24 05:55:14;;;;;;;5.15;2.85;;;17.60;48.50;;;;;;5014943;28;20105;-69
2021/12/24 05:57:39;;;;;;;5.50;2.80;;;17.60;48.60;;;;;;5014563;28;20104;-70
2021/12/24 06:00:09;;;;;;;5.45;2.90;;;17.70;48.60;;;;;;5014632;28;20065;-70
2021/12/24 06:02:35;;;;;;;5.63;2.60;;;17.80;48.70;;;;;;5014518;28;20520;-70
2021/12/24 06:05:01;;;;;;;5.50;2.72;;;17.80;48.60;;;;;;5014523;28;20522;-69
2021/12/24 06:07:26;;;;;;;5.95;2.70;;;17.90;48.60;;;;;;5014467;28;20026;-70
2021/12/24 06:09:52;;;;;;;4.63;2.50;;;17.90;48.50;;;;;;5013258;28;20064;-70
2021/12/24 06:12:18;;;;;;;5.90;2.33;;;18.00;48.50;;;;;;5014366;28;20018;-69
2021/12/24 06:14:46;;;;;;;6.00;2.63;;;18.00;48.40;;;;;;5014394;28;20056;-70
2021/12/24 06:17:16;;;;;;;5.28;2.60;;;18.10;48.30;;;;;;5013664;28;20036;-70
2021/12/24 06:19:42;;;;;;;4.93;2.60;;;18.10;48.20;;;;;;4994363;28;20410;-70
2021/12/24 06:22:07;;;;;;;5.85;2.85;;;18.20;48.20;;;;;;4994619;28;20391;-70
2021/12/24 06:24:33;;;;;;;4.63;2.50;;;18.20;48.10;;;;;;4994726;28;20019;-70
2021/12/24 06:26:58;;;;;;;5.70;2.85;;;18.30;48.10;;;;;;4994666;28;20022;-70
2021/12/24 06:29:24;;;;;;;4.80;2.65;;;18.30;48.10;;;;;;4994537;28;20030;-70
2021/12/24 06:31:51;;;;;;;5.82;2.53;;;18.30;48.00;;;;;;4993260;28;20026;-70
2021/12/24 06:34:18;;;;;;;5.25;2.70;;;18.40;48.00;;;;;;4994400;28;20128;-70
2021/12/24 06:36:46;;;;;;;4.93;2.40;;;18.40;47.90;;;;;;4994438;28;20101;-70
2021/12/24 06:39:12;;;;;;;4.97;2.20;;;18.40;48.70;;;;;;5003053;28;20024;-70
2021/12/24 06:41:38;;;;;;;3.50;2.38;;;18.40;47.70;;;;;;5013931;28;20374;-70
2021/12/24 06:44:05;;;;;;;5.07;2.20;;;18.50;47.70;;;;;;5012648;28;20026;-70
2021/12/24 06:46:31;;;;;;;5.65;2.13;;;18.50;47.50;;;;;;5013841;28;20022;-70
2021/12/24 06:48:56;;;;;;;5.20;2.30;;;18.50;47.50;;;;;;5013737;28;20037;-70
2021/12/24 06:51:28;;;;;;;4.30;2.17;;;18.50;47.50;;;;;;5013744;28;20037;-70
2021/12/24 06:53:54;;;;;;;5.32;2.35;;;18.50;47.40;;;;;;5013726;28;20097;-70
2021/12/24 06:56:20;;;;;;;3.90;2.22;;;18.50;47.40;;;;;;5012386;28;20026;-69
2021/12/24 06:58:46;;;;;;;4.82;2.10;;;18.60;47.40;;;;;;5013652;28;20029;-70
2021/12/24 07:01:12;;;;;;;4.25;2.30;;;18.60;47.40;;;;;;5013611;28;20086;-70
2021/12/24 07:03:38;;;;;;;7.78;2.33;;;18.60;47.30;;;;;;5013075;28;20030;-70
2021/12/24 07:06:04;;;;;;;4.47;1.83;;;18.60;47.30;;;;;;5012578;28;20375;-70
2021/12/24 07:08:31;;;;;;;5.53;2.30;;;18.60;47.20;;;;;;5013406;28;20052;-70
2021/12/24 07:10:57;;;;;;;7.15;2.40;;;18.60;47.20;;;;;;5013443;28;20036;-70
2021/12/24 07:13:23;;;;;;;7.22;2.40;;;18.60;48.10;;;;;;5013163;28;20022;-69
2021/12/24 07:15:48;;;;;;;4.45;2.17;;;18.70;47.20;;;;;;5013320;28;20052;-70
2021/12/24 07:18:14;;;;;;;5.25;2.20;;;18.70;47.10;;;;;;5004147;28;20030;-70
2021/12/24 07:20:40;;;;;;;6.22;2.22;;;18.60;47.10;;;;;;4993585;28;20030;-70
2021/12/24 07:23:05;;;;;;;5.80;2.30;;;18.70;47.10;;;;;;4993545;28;20042;-70
2021/12/24 07:25:31;;;;;;;4.32;2.10;;;18.70;47.10;;;;;;4992300;28;20117;-70
2021/12/24 07:27:57;;;;;;;3.33;1.98;;;18.70;47.10;;;;;;4993518;28;20110;-70
2021/12/24 07:30:23;;;;;;;5.63;2.38;;;18.70;47.00;;;;;;4991780;28;20539;-70
2021/12/24 07:32:48;;;;;;;3.95;2.22;;;18.70;46.90;;;;;;4993084;28;20057;-70
2021/12/24 07:35:14;;;;;;;5.47;2.42;;;18.70;46.90;;;;;;4993419;28;20041;-70
2021/12/24 07:37:41;;;;;;;4.07;2.10;;;18.70;46.90;;;;;;4993387;28;20057;-70
2021/12/24 07:40:08;;;;;;;5.07;2.53;;;18.70;46.90;;;;;;5010617;28;20402;-70
2021/12/24 07:42:34;;;;;;;6.10;2.17;;;18.70;46.90;;;;;;5013085;28;20018;-70
2021/12/24 07:44:59;;;;;;;5.00;2.05;;;18.70;46.80;;;;;;5012879;28;20022;-70
2021/12/24 07:47:32;;;;;;;5.50;2.10;;;18.70;46.80;;;;;;5012866;28;20029;-70
2021/12/24 07:50:04;;;;;;;3.85;1.90;;;18.80;46.90;;;;;;5012917;28;20022;-70
2021/12/24 07:52:30;;;;;;;4.57;1.85;;;18.80;47.80;;;;;;5012878;28;20041;-70
2021/12/24 07:54:56;;;;;;;5.00;2.17;;;18.80;46.90;;;;;;5013062;28;20030;-70
2021/12/24 07:57:24;;;;;;;3.80;1.98;;;18.80;46.90;;;;;;5012827;28;20025;-70
2021/12/24 07:59:50;;;;;;;3.47;1.80;;;18.80;46.80;;;;;;5012734;28;20429;-70
2021/12/24 08:02:18;;;;;;;4.00;2.00;;;18.80;46.80;;;;;;5012798;28;20034;-70
2021/12/24 08:04:45;;;;;;;4.53;1.92;;;18.80;46.70;;;;;;5012498;28;20405;-70
2021/12/24 08:07:12;;;;;;;4.07;1.92;;;18.80;46.70;;;;;;5012751;28;20082;-70
2021/12/24 08:09:38;;;;;;;6.07;2.10;;;18.80;46.70;;;;;;5012678;28;20605;-70
2021/12/24 08:12:06;;;;;;;4.75;2.05;;;18.80;47.60;;;;;;5012659;28;20049;-70
2021/12/24 08:14:32;;;;;;;4.10;2.15;;;18.80;46.70;;;;;;5012660;28;20052;-70
2021/12/24 08:16:57;;;;;;;5.03;2.33;;;18.80;46.60;;;;;;5012685;28;20470;-70
2021/12/24 08:19:23;;;;;;;5.22;2.38;;;18.90;46.60;;;;;;4994046;28;20027;-70
2021/12/24 08:21:50;;;;;;;4.60;2.05;;;18.90;46.60;;;;;;4992937;28;20026;-70
2021/12/24 08:24:15;;;;;;;5.47;2.22;;;18.90;46.60;;;;;;4992931;28;20029;-70
2021/12/24 08:26:41;;;;;;;4.80;2.22;;;18.90;46.60;;;;;;4992933;28;20026;-70
2021/12/24 08:29:07;;;;;;;6.15;2.13;;;18.90;46.60;;;;;;4992830;28;20701;-70
2021/12/24 08:31:34;;;;;;;5.53;2.22;;;18.90;46.50;;;;;;4991649;28;20041;-70
2021/12/24 08:34:00;;;;;;;5.20;2.03;;;18.90;46.50;;;;;;4992815;28;20097;-70
2021/12/24 08:36:26;;;;;;;4.70;2.08;;;18.90;46.50;;;;;;4992755;28;20037;-70
2021/12/24 08:38:52;;;;;;;6.30;2.13;;;18.90;46.50;;;;;;5000159;28;20018;-70
2021/12/24 08:41:18;;;;;;;4.63;1.92;;;18.90;46.50;;;;;;5012275;28;20026;-70
2021/12/24 08:43:43;;;;;;;5.65;2.00;;;18.90;46.50;;;;;;5015542;28;20111;-70
2021/12/24 08:46:09;;;;;;;3.45;2.13;;;18.90;46.40;;;;;;5016008;28;20026;-70
2021/12/24 08:48:34;;;;;;;6.10;1.92;;;18.90;46.40;;;;;;5016150;28;20109;-70
2021/12/24 08:51:00;;;;;;;3.78;1.98;;;18.90;46.40;;;;;;5015871;28;20450;-70
2021/12/24 08:53:26;;;;;;;3.60;1.83;;;19.00;46.50;;;;;;5016031;28;20033;-70
2021/12/24 08:55:53;;;;;;;5.25;2.03;;;18.90;47.40;;;;;;5015915;28;20018;-70
2021/12/24 08:58:19;;;;;;;7.32;2.25;;;19.00;46.50;;;;;;5015840;28;20021;-70
2021/12/24 09:00:45;;;;;;;5.15;2.00;;;19.00;46.50;;;;;;5015699;28;20105;-70
2021/12/24 09:03:11;;;;;;;4.38;2.15;;;19.00;46.40;;;;;;5015773;28;20116;-70
2021/12/24 09:05:36;;;;;;;4.88;1.95;;;19.00;46.40;;;;;;5015569;28;20044;-70
2021/12/24 09:08:02;;;;;;;4.00;1.98;;;19.00;46.40;;;;;;5015708;28;20053;-70
2021/12/24 09:10:28;;;;;;;5.63;2.08;;;19.00;46.40;;;;;;5015600;28;20466;-70
2021/12/24 09:12:54;;;;;;;2.97;1.90;;;19.00;46.40;;;;;;5014219;28;20058;-70
2021/12/24 09:15:20;;;;;;;4.55;2.17;;;19.00;46.40;;;;;;5015585;28;20017;-70
2021/12/24 09:17:47;;;;;;;3.72;1.75;;;19.00;46.40;;;;;;5015536;28;20493;-70
2021/12/24 09:20:16;;;;;;;3.97;1.80;;;19.00;46.40;;;;;;5015430;28;20022;-70
2021/12/24 09:22:43;;;;;;;5.07;2.20;;;19.00;46.40;;;;;;5015397;28;20049;-70
2021/12/24 09:25:09;;;;;;;4.97;1.90;;;19.00;46.50;;;;;;5015364;28;20021;-70
2021/12/24 09:27:35;;;;;;;6.07;1.83;;;19.00;46.40;;;;;;5014112;28;20091;-70
2021/12/24 09:30:01;;;;;;;4.85;2.00;;;19.00;46.40;;;;;;5015293;28;20018;-70
2021/12/24 09:32:29;;;;;;;4.45;1.70;;;19.00;46.40;;;;;;5013989;28;20401;-70
2021/12/24 09:34:55;;;;;;;6.47;2.05;;;19.00;46.40;;;;;;5013908;28;20018;-70
2021/12/24 09:37:21;;;;;;;4.57;1.88;;;19.10;46.40;;;;;;5015099;28;20018;-70
2021/12/24 09:39:46;;;;;;;6.15;2.10;;;19.00;46.40;;;;;;5014896;28;20109;-70
2021/12/24 09:42:12;;;;;;;4.65;1.92;;;19.10;46.50;;;;;;5015077;28;20026;-70
2021/12/24 09:44:38;;;;;;;5.65;2.00;;;19.10;46.50;;;;;;5015142;28;20096;-70
2021/12/24 09:47:04;;;;;;;4.60;1.67;;;19.10;46.50;;;;;;5014769;28;20018;-70
2021/12/24 09:49:29;;;;;;;5.50;1.88;;;19.10;46.40;;;;;;5014994;28;20033;-70
2021/12/24 09:51:55;;;;;;;6.43;2.35;;;19.10;46.40;;;;;;5014872;28;20053;-70
2021/12/24 09:54:23;;;;;;;4.55;1.80;;;19.10;46.40;;;;;;5014104;28;20034;-70
2021/12/24 09:56:50;;;;;;;3.15;1.75;;;19.10;46.40;;;;;;5014910;28;20459;-70
2021/12/24 09:59:16;;;;;;;5.38;1.90;;;19.10;46.50;;;;;;5014932;28;20034;-70
2021/12/24 10:01:57;;;;;;;4.47;1.80;;;19.10;46.40;;;;;;5014568;28;20049;-70
2021/12/24 10:04:32;;;;;;;4.88;1.85;;;19.10;46.40;;;;;;5013277;28;20037;-70
2021/12/24 10:07:03;;;;;;;5.03;2.00;;;19.10;46.50;;;;;;5014636;28;20029;-70
2021/12/24 10:09:34;;;;;;;5.00;2.00;;;19.10;46.50;;;;;;5014693;28;20026;-70
2021/12/24 10:12:03;;;;;;;6.10;2.58;;;19.10;46.50;;;;;;5014403;28;20095;-70
2021/12/24 10:14:42;;;;;;;4.85;2.00;;;19.10;46.50;;;;;;5014489;28;20034;-70
2021/12/24 10:17:38;;;;;;;5.00;2.20;;;19.20;46.60;;;;;;5012972;28;20040;-70
2021/12/24 10:20:18;;;;;;;5.45;2.00;;;19.10;46.50;;;;;;4994803;28;20057;-70
2021/12/24 10:22:46;;;;;;;6.43;2.25;;;19.10;46.50;;;;;;4994720;28;20707;-70
2021/12/24 10:25:13;;;;;;;4.10;1.95;;;19.10;46.60;;;;;;4994809;28;20019;-70
2021/12/24 10:27:41;;;;;;;5.05;2.10;;;19.10;46.60;;;;;;4993360;28;20019;-70
2021/12/24 10:30:23;;;;;;;4.53;1.75;;;19.10;46.70;;;;;;4994655;28;20478;-70
2021/12/24 10:32:53;;;;;;;4.68;2.00;;;19.20;46.70;;;;;;4994533;28;20033;-70
2021/12/24 10:35:24;;;;;;;5.45;2.60;;;19.20;46.70;;;;;;4994556;28;20394;-70
2021/12/24 10:38:28;;;;;;;4.32;2.00;;;19.20;46.70;;;;;;4994349;28;20026;-70
2021/12/24 10:41:04;;;;;;;4.63;2.15;;;19.20;46.70;;;;;;4971699;28;20562;-70
2021/12/24 10:43:34;;;;;;;5.82;2.00;;;19.20;46.80;;;;;;4956600;28;20023;-70
2021/12/24 10:46:15;;;;;;;6.13;2.30;;;19.20;46.80;;;;;;4976457;28;20089;-70
2021/12/24 10:48:58;;;;;;;3.35;2.00;;;19.20;46.80;;;;;;5013832;28;20056;-70
2021/12/24 10:51:52;;;;;;;3.80;1.80;;;19.20;46.80;;;;;;5013833;28;20033;-70
2021/12/24 10:54:10;;;;;;;4.85;1.92;;;19.20;46.80;;;;;;5013691;28;20478;-70
2021/12/24 10:56:35;;;;;;;5.78;1.88;;;19.10;46.80;;;;;;5013709;28;20044;-70
2021/12/24 10:59:01;;;;;;;3.55;2.10;;;19.10;46.80;;;;;;5013802;28;20028;-70
2021/12/24 11:01:27;;;;;;;7.40;2.20;;;19.20;46.80;;;;;;5013459;28;20069;-70
2021/12/24 11:03:52;;;;;;;6.22;2.10;;;19.20;46.90;;;;;;5013355;28;20029;-70
2021/12/24 11:06:21;;;;;;;3.22;1.90;;;19.20;46.90;;;;;;5013455;28;20022;-70
2021/12/24 11:08:53;;;;;;;6.72;2.75;;;19.20;46.90;;;;;;5013573;28;20485;-70
2021/12/24 11:11:19;;;;;;;7.22;2.33;;;19.20;46.90;;;;;;5013478;28;20076;-70
2021/12/24 11:13:47;;;;;;;5.32;2.05;;;19.20;46.90;;;;;;5013486;28;20513;-70
2021/12/24 11:16:21;;;;;;;5.60;2.00;;;19.20;46.90;;;;;;5013423;28;20360;-70
2021/12/24 11:19:02;;;;;;;5.05;2.10;;;19.20;46.90;;;;;;4999855;28;20376;-70
2021/12/24 11:21:29;;;;;;;6.88;2.28;;;19.20;47.00;;;;;;4993624;28;20022;-70
2021/12/24 11:23:56;;;;;;;6.45;2.10;;;19.20;47.00;;;;;;4993708;28;20068;-70
2021/12/24 11:26:27;;;;;;;4.85;2.42;;;19.20;47.00;;;;;;4993625;28;20023;-70
2021/12/24 11:28:54;;;;;;;5.33;2.33;;;19.20;47.00;;;;;;4993687;28;20033;-70
2021/12/24 11:31:22;;;;;;;5.40;2.10;;;19.20;47.00;;;;;;4993589;28;20026;-70
2021/12/24 11:33:49;;;;;;;5.38;2.20;;;19.20;47.00;;;;;;4993400;28;20105;-70
2021/12/24 11:36:17;;;;;;;5.50;2.53;;;19.20;47.00;;;;;;4993580;28;20528;-70
2021/12/24 11:38:46;;;;;;;6.18;2.00;;;19.20;47.00;;;;;;4999453;28;20049;-70
2021/12/24 11:41:14;;;;;;;4.63;1.92;;;19.20;47.00;;;;;;5013077;28;20030;-70
2021/12/24 11:43:42;;;;;;;3.97;1.90;;;19.30;47.00;;;;;;5012973;28;20022;-70
2021/12/24 11:46:10;;;;;;;6.10;2.10;;;19.20;47.00;;;;;;5013037;28;20513;-70
2021/12/24 11:48:36;;;;;;;4.78;2.30;;;19.20;47.00;;;;;;5012810;28;20393;-70
2021/12/24 11:51:07;;;;;;;6.22;2.30;;;19.20;47.00;;;;;;5011800;28;20026;-70
2021/12/24 11:53:33;;;;;;;6.45;2.58;;;19.30;47.10;;;;;;5011543;28;20026;-70
2021/12/24 11:56:09;;;;;;;4.88;2.40;;;19.30;47.10;;;;;;5012895;28;20025;-70
2021/12/24 11:59:04;;;;;;;4.63;2.25;;;19.30;47.10;;;;;;5012795;28;20048;-70
2021/12/24 12:01:37;;;;;;;4.18;2.33;;;19.30;47.10;;;;;;5003977;28;20046;-70
2021/12/24 12:04:15;;;;;;;5.82;2.65;;;19.20;47.20;;;;;;5011240;28;20537;-70
2021/12/24 12:06:41;;;;;;;3.92;2.20;;;19.30;47.20;;;;;;5013030;28;20018;-70
2021/12/24 12:09:10;;;;;;;6.03;2.33;;;19.20;47.20;;;;;;5012748;28;20475;-70
2021/12/24 12:11:39;;;;;;;4.15;2.20;;;19.20;47.20;;;;;;5011606;28;20025;-70
2021/12/24 12:14:17;;;;;;;6.35;2.38;;;19.30;47.30;;;;;;5011339;28;20426;-70
2021/12/24 12:16:43;;;;;;;3.92;2.28;;;19.30;47.30;;;;;;5012856;28;20053;-70
2021/12/24 12:19:21;;;;;;;4.78;2.72;;;19.30;47.40;;;;;;5000144;28;20060;-70
2021/12/24 12:27:34;;;;;;;4.97;2.33;;;19.30;47.50;;;;;;4997070;28;20026;-70
2021/12/24 12:30:21;;;;;;;6.15;2.75;;;19.30;47.50;;;;;;4997034;28;20031;-70
2021/12/24 12:32:48;;;;;;;5.25;2.33;;;19.30;47.60;;;;;;4996856;28;20022;-70
2021/12/24 12:35:14;;;;;;;5.63;2.70;;;19.30;47.60;;;;;;4996957;28;20018;-70
2021/12/24 12:37:49;;;;;;;6.85;2.58;;;19.20;47.60;;;;;;4996616;28;20022;-70
2021/12/24 12:40:18;;;;;;;6.43;2.92;;;19.30;47.70;;;;;;5015268;28;20030;-70
2021/12/24 12:42:59;;;;;;;6.07;2.72;;;19.30;47.70;;;;;;5015253;28;20052;-70
2021/12/24 12:45:34;;;;;;;6.40;2.72;;;19.30;47.70;;;;;;5016282;28;20032;-70
2021/12/24 12:48:03;;;;;;;6.03;2.67;;;19.30;47.70;;;;;;5015921;28;20045;-70
2021/12/24 12:50:29;;;;;;;4.45;2.47;;;19.30;47.70;;;;;;5014969;28;20057;-70
2021/12/24 12:53:23;;;;;;;6.70;2.80;;;19.30;47.70;;;;;;5014775;28;20033;-70
2021/12/24 12:56:08;;;;;;;4.90;2.63;;;19.40;47.70;;;;;;5016014;28;20450;-70
2021/12/24 12:58:34;;;;;;;8.55;2.97;;;19.30;47.80;;;;;;5015934;28;20021;-70
2021/12/24 13:01:30;;;;;;;5.32;2.88;;;19.30;47.80;;;;;;5015913;28;20036;-70
2021/12/24 13:03:55;;;;;;;4.50;2.33;;;19.30;47.60;;;;;;5007082;28;20042;-70
2021/12/24 13:06:42;;;;;;;7.03;2.88;;;19.30;47.80;;;;;;5015961;28;20033;-70
2021/12/24 13:09:16;;;;;;;6.18;2.92;;;19.30;47.90;;;;;;5015773;28;20076;-70
2021/12/24 13:11:45;;;;;;;5.70;2.30;;;19.30;47.80;;;;;;5015775;28;20044;-70
2021/12/24 13:14:12;;;;;;;5.43;2.42;;;19.30;47.80;;;;;;5015496;28;20021;-70
2021/12/24 13:16:47;;;;;;;6.68;2.85;;;19.30;47.80;;;;;;5015650;28;20034;-70
2021/12/24 13:25:09;;;;;;;5.93;3.03;;;19.30;47.80;;;;;;4995920;28;20272;-70
2021/12/24 13:27:39;;;;;;;4.07;2.40;;;19.30;47.90;;;;;;4995889;28;20014;-70
2021/12/24 13:30:14;;;;;;;9.15;3.30;;;19.30;48.00;;;;;;4994658;28;20365;-70
2021/12/24 13:32:43;;;;;;;7.53;3.15;;;19.30;48.00;;;;;;4995636;28;20137;-70
2021/12/24 13:35:09;;;;;;;5.65;2.65;;;19.30;48.00;;;;;;4995744;28;20026;-70
2021/12/24 13:37:35;;;;;;;6.53;2.85;;;19.30;48.00;;;;;;4995656;28;20029;-70
2021/12/24 13:40:02;;;;;;;6.00;2.72;;;19.30;48.10;;;;;;5012051;28;20105;-70
2021/12/24 13:42:28;;;;;;;4.38;3.00;;;19.30;48.00;;;;;;5015275;28;20453;-70
2021/12/24 13:45:03;;;;;;;7.50;3.03;;;19.30;48.00;;;;;;5015318;28;20061;-70
2021/12/24 13:47:53;;;;;;;6.88;2.85;;;19.30;48.00;;;;;;5015288;28;20056;-70
2021/12/24 13:50:32;;;;;;;4.97;2.80;;;19.30;48.10;;;;;;5015243;28;20431;-70
2021/12/24 13:55:45;;;;;;;6.45;3.20;;;19.30;48.00;;;;;;5015137;28;20445;-70
2021/12/24 13:58:13;;;;;;;7.93;3.47;;;19.30;48.10;;;;;;5014942;28;20022;-70
2021/12/24 14:00:47;;;;;;;5.95;2.80;;;19.30;48.20;;;;;;5013650;28;20109;-70
2021/12/24 14:03:13;;;;;;;7.15;3.25;;;19.30;48.10;;;;;;5014741;28;20034;-70
2021/12/24 14:05:47;;;;;;;5.57;3.20;;;19.30;48.10;;;;;;5014805;28;20472;-70
2021/12/24 14:08:19;;;;;;;5.50;2.80;;;19.40;48.20;;;;;;5014734;28;20045;-70
2021/12/24 14:10:47;;;;;;;8.20;3.17;;;19.30;48.10;;;;;;5014854;28;20022;-70
2021/12/24 14:13:29;;;;;;;6.57;3.03;;;19.30;48.10;;;;;;5014526;28;20025;-70
2021/12/24 14:24:14;;;;;;;8.32;2.53;;;19.30;48.00;;;;;;5014122;28;20060;-70
2021/12/24 14:26:43;;;;;;;5.70;2.47;;;19.30;48.00;;;;;;5014406;28;20026;-70
2021/12/24 14:29:09;;;;;;;4.50;2.60;;;19.30;48.10;;;;;;5014320;28;20458;-70
2021/12/24 14:31:53;;;;;;;8.52;2.92;;;19.40;48.20;;;;;;5014403;28;20029;-70
2021/12/24 14:34:45;;;;;;;5.53;2.83;;;19.30;48.90;;;;;;5014210;28;20105;-70
2021/12/24 14:37:34;;;;;;;4.45;2.58;;;19.30;48.00;;;;;;5012930;28;20107;-70
2021/12/24 14:40:02;;;;;;;5.28;2.58;;;19.30;48.00;;;;;;5012451;28;20068;-70
2021/12/24 14:42:47;;;;;;;5.20;2.67;;;19.30;48.10;;;;;;5014023;28;20394;-70
2021/12/24 14:45:25;;;;;;;5.05;2.83;;;19.40;48.10;;;;;;5013984;28;20493;-70